createdAt,value
2018-07-22T00:00:18.614Z,23.54
2018-07-22T00:00:44.753Z,23.48
2018-07-22T00:01:10.909Z,23.51
2018-07-22T00:01:37.077Z,23.5
2018-07-22T00:02:03.221Z,23.5
2018-07-22T00:02:29.376Z,23.5
2018-07-22T00:02:55.520Z,23.58
2018-07-22T00:03:21.655Z,23.47
2018-07-22T00:03:47.801Z,23.58
2018-07-22T00:04:13.960Z,23.51
2018-07-22T00:04:40.146Z,23.5
2018-07-22T00:05:06.285Z,23.55
2018-07-22T00:05:32.419Z,23.51
2018-07-22T00:05:58.569Z,23.55
2018-07-22T00:06:24.712Z,23.46
2018-07-22T00:06:50.849Z,23.54
2018-07-22T00:07:17.007Z,23.51
2018-07-22T00:07:43.151Z,23.58
2018-07-22T00:08:09.325Z,23.62
2018-07-22T00:08:35.467Z,23.61
2018-07-22T00:09:01.604Z,23.5
2018-07-22T00:09:27.755Z,23.58
2018-07-22T00:09:53.900Z,23.5
2018-07-22T00:10:20.039Z,23.51
2018-07-22T00:10:46.177Z,23.58
2018-07-22T00:11:12.329Z,23.55
2018-07-22T00:11:38.458Z,23.51
2018-07-22T00:12:04.604Z,23.5
2018-07-22T00:12:30.758Z,23.48
2018-07-22T00:12:57.058Z,23.51
2018-07-22T00:13:23.237Z,23.55
2018-07-22T00:13:49.369Z,23.59
2018-07-22T00:14:15.570Z,23.48
2018-07-22T00:14:41.716Z,23.54
2018-07-22T00:15:07.854Z,23.47
2018-07-22T00:15:34.400Z,23.44
2018-07-22T00:16:00.561Z,23.34
2018-07-22T00:16:26.697Z,23.37
2018-07-22T00:16:52.866Z,23.37
2018-07-22T00:17:19.016Z,23.36
2018-07-22T00:17:45.150Z,23.4
2018-07-22T00:18:11.328Z,23.37
2018-07-22T00:18:37.492Z,23.43
2018-07-22T00:19:03.688Z,23.4
2018-07-22T00:19:29.827Z,23.4
2018-07-22T00:19:55.963Z,23.48
2018-07-22T00:20:22.143Z,23.51
2018-07-22T00:20:48.316Z,23.5
2018-07-22T00:21:14.480Z,23.46
2018-07-22T00:21:40.673Z,23.43
2018-07-22T00:22:06.843Z,23.44
2018-07-22T00:22:32.977Z,23.43
2018-07-22T00:22:59.128Z,23.4
2018-07-22T00:23:25.291Z,23.25
2018-07-22T00:23:51.437Z,23.34
2018-07-22T00:24:17.668Z,23.39
2018-07-22T00:24:43.835Z,23.4
2018-07-22T00:25:09.992Z,23.5
2018-07-22T00:25:36.138Z,23.46
2018-07-22T00:26:02.277Z,23.43
2018-07-22T00:26:28.443Z,23.32
2018-07-22T00:26:54.598Z,23.46
2018-07-22T00:27:20.766Z,23.31
2018-07-22T00:27:46.922Z,23.28
2018-07-22T00:28:13.061Z,23.32
2018-07-22T00:28:39.217Z,23.37
2018-07-22T00:29:05.416Z,23.31
2018-07-22T00:29:31.500Z,23.25
2018-07-22T00:29:57.707Z,23.43
2018-07-22T00:30:23.845Z,23.43
2018-07-22T00:30:49.979Z,23.36
2018-07-22T00:31:16.120Z,23.31
2018-07-22T00:31:42.269Z,23.37
2018-07-22T00:32:08.431Z,23.25
2018-07-22T00:32:34.600Z,23.23
2018-07-22T00:33:00.760Z,23.24
2018-07-22T00:33:26.903Z,23.28
2018-07-22T00:33:53.056Z,23.27
2018-07-22T00:34:19.212Z,23.32
2018-07-22T00:34:45.354Z,23.28
2018-07-22T00:35:11.508Z,23.23
2018-07-22T00:35:37.679Z,23.28
2018-07-22T00:36:03.816Z,23.23
2018-07-22T00:36:29.969Z,23.23
2018-07-22T00:36:56.128Z,23.2
2018-07-22T00:37:22.269Z,23.2
2018-07-22T00:37:48.428Z,23.21
2018-07-22T00:38:14.558Z,23.27
2018-07-22T00:38:40.721Z,23.17
2018-07-22T00:39:06.861Z,23.15
2018-07-22T00:39:33.002Z,23.17
2018-07-22T00:39:59.142Z,23.15
2018-07-22T00:40:25.278Z,23.1
2018-07-22T00:40:51.455Z,23.12
2018-07-22T00:41:17.598Z,23.09
2018-07-22T00:41:43.740Z,23.06
2018-07-22T00:42:09.882Z,23.09
2018-07-22T00:42:36.302Z,23.15
2018-07-22T00:43:02.436Z,23.09
2018-07-22T00:43:28.593Z,23.06
2018-07-22T00:43:54.737Z,23.02
2018-07-22T00:44:20.903Z,23.06
2018-07-22T00:44:47.067Z,23
2018-07-22T00:45:13.205Z,22.99
2018-07-22T00:45:39.368Z,22.96
2018-07-22T00:46:05.503Z,22.9
2018-07-22T00:46:31.644Z,22.93
2018-07-22T00:46:57.809Z,22.9
2018-07-22T00:47:23.970Z,22.83
2018-07-22T00:47:50.122Z,22.96
2018-07-22T00:48:16.275Z,22.93
2018-07-22T00:48:42.457Z,22.9
2018-07-22T00:49:08.593Z,22.84
2018-07-22T00:49:34.763Z,22.85
2018-07-22T00:50:00.916Z,22.83
2018-07-22T00:50:27.055Z,22.84
2018-07-22T00:50:53.201Z,22.87
2018-07-22T00:51:19.347Z,22.84
2018-07-22T00:51:45.487Z,22.81
2018-07-22T00:52:11.630Z,22.75
2018-07-22T00:52:37.765Z,22.81
2018-07-22T00:53:03.904Z,22.76
2018-07-22T00:53:30.062Z,22.85
2018-07-22T00:53:56.202Z,22.72
2018-07-22T00:54:22.338Z,22.72
2018-07-22T00:54:48.510Z,22.87
2018-07-22T00:55:14.642Z,22.84
2018-07-22T00:55:40.796Z,22.87
2018-07-22T00:56:06.940Z,22.75
2018-07-22T00:56:33.143Z,22.84
2018-07-22T00:56:59.308Z,22.72
2018-07-22T00:57:25.457Z,22.7
2018-07-22T00:57:51.595Z,22.73
2018-07-22T00:58:17.741Z,22.66
2018-07-22T00:58:43.883Z,22.66
2018-07-22T00:59:10.014Z,22.7
2018-07-22T00:59:36.178Z,22.66
2018-07-22T01:00:02.443Z,22.73
2018-07-22T01:00:28.537Z,22.75
2018-07-22T01:00:54.680Z,22.66
2018-07-22T01:01:20.821Z,22.72
2018-07-22T01:01:46.963Z,22.68
2018-07-22T01:02:13.109Z,22.66
2018-07-22T01:02:39.259Z,22.62
2018-07-22T01:03:05.404Z,22.69
2018-07-22T01:03:31.548Z,22.62
2018-07-22T01:03:57.721Z,22.57
2018-07-22T01:04:23.916Z,22.63
2018-07-22T01:04:50.063Z,22.6
2018-07-22T01:05:16.215Z,22.63
2018-07-22T01:05:42.368Z,22.53
2018-07-22T01:06:08.500Z,22.6
2018-07-22T01:06:34.662Z,22.63
2018-07-22T01:07:00.843Z,22.51
2018-07-22T01:07:27.026Z,22.54
2018-07-22T01:07:53.196Z,22.53
2018-07-22T01:08:19.349Z,22.59
2018-07-22T01:08:45.541Z,22.54
2018-07-22T01:09:11.684Z,22.54
2018-07-22T01:09:37.821Z,22.48
2018-07-22T01:10:03.980Z,22.54
2018-07-22T01:10:30.127Z,22.55
2018-07-22T01:10:56.275Z,22.51
2018-07-22T01:11:22.420Z,22.51
2018-07-22T01:11:48.580Z,22.5
2018-07-22T01:12:14.740Z,22.51
2018-07-22T01:12:40.907Z,22.45
2018-07-22T01:13:07.039Z,22.51
2018-07-22T01:13:33.199Z,22.44
2018-07-22T01:13:59.351Z,22.38
2018-07-22T01:14:25.514Z,22.39
2018-07-22T01:14:51.657Z,22.47
2018-07-22T01:15:17.804Z,22.43
2018-07-22T01:15:43.962Z,22.43
2018-07-22T01:16:10.100Z,22.47
2018-07-22T01:16:36.231Z,22.39
2018-07-22T01:17:02.370Z,22.45
2018-07-22T01:17:28.509Z,22.39
2018-07-22T01:17:54.676Z,22.43
2018-07-22T01:18:20.850Z,22.39
2018-07-22T01:18:47.035Z,22.38
2018-07-22T01:19:13.183Z,22.3
2018-07-22T01:19:39.313Z,22.35
2018-07-22T01:20:05.457Z,22.33
2018-07-22T01:20:31.625Z,22.36
2018-07-22T01:20:57.811Z,22.36
2018-07-22T01:21:23.979Z,22.35
2018-07-22T01:21:50.116Z,22.36
2018-07-22T01:22:16.275Z,22.3
2018-07-22T01:22:42.407Z,22.39
2018-07-22T01:23:08.551Z,22.26
2018-07-22T01:23:34.694Z,22.33
2018-07-22T01:24:00.834Z,22.3
2018-07-22T01:24:26.993Z,22.3
2018-07-22T01:24:53.139Z,22.33
2018-07-22T01:25:19.281Z,22.26
2018-07-22T01:25:45.420Z,22.29
2018-07-22T01:26:11.591Z,22.3
2018-07-22T01:26:37.730Z,22.25
2018-07-22T01:27:03.896Z,22.23
2018-07-22T01:27:30.040Z,22.25
2018-07-22T01:27:56.182Z,22.28
2018-07-22T01:28:22.379Z,22.25
2018-07-22T01:28:48.533Z,22.15
2018-07-22T01:29:14.664Z,22.2
2018-07-22T01:29:40.813Z,22.23
2018-07-22T01:30:06.983Z,22.26
2018-07-22T01:30:33.116Z,22.14
2018-07-22T01:30:59.287Z,22.2
2018-07-22T01:31:25.427Z,22.2
2018-07-22T01:31:51.592Z,22.26
2018-07-22T01:32:17.770Z,22.15
2018-07-22T01:32:43.906Z,22.17
2018-07-22T01:33:10.106Z,22.17
2018-07-22T01:33:36.255Z,22.15
2018-07-22T01:34:02.389Z,22.11
2018-07-22T01:34:28.543Z,22.14
2018-07-22T01:34:54.696Z,22.13
2018-07-22T01:35:20.840Z,22.08
2018-07-22T01:35:47.029Z,22.15
2018-07-22T01:36:13.178Z,22.13
2018-07-22T01:36:39.321Z,22.14
2018-07-22T01:37:05.485Z,22.02
2018-07-22T01:37:31.622Z,22.08
2018-07-22T01:37:57.771Z,22.07
2018-07-22T01:38:23.921Z,22.11
2018-07-22T01:38:50.058Z,22.13
2018-07-22T01:39:16.208Z,22.11
2018-07-22T01:39:42.400Z,22.1
2018-07-22T01:40:08.542Z,22.1
2018-07-22T01:40:34.681Z,22.04
2018-07-22T01:41:00.834Z,22.02
2018-07-22T01:41:27.004Z,22.02
2018-07-22T01:41:53.188Z,22.02
2018-07-22T01:42:19.353Z,21.95
2018-07-22T01:42:45.538Z,22.02
2018-07-22T01:43:11.695Z,21.99
2018-07-22T01:43:37.824Z,22.06
2018-07-22T01:44:03.976Z,22.06
2018-07-22T01:44:30.168Z,21.95
2018-07-22T01:44:56.298Z,21.98
2018-07-22T01:45:22.466Z,22
2018-07-22T01:45:48.613Z,22.02
2018-07-22T01:46:14.760Z,21.98
2018-07-22T01:46:40.943Z,22.04
2018-07-22T01:47:07.106Z,21.98
2018-07-22T01:47:33.252Z,21.99
2018-07-22T01:47:59.417Z,21.99
2018-07-22T01:48:25.553Z,22.08
2018-07-22T01:48:51.705Z,21.99
2018-07-22T01:49:17.888Z,21.93
2018-07-22T01:49:44.032Z,21.98
2018-07-22T01:50:10.176Z,21.93
2018-07-22T01:50:36.342Z,21.88
2018-07-22T01:51:02.471Z,21.91
2018-07-22T01:51:28.620Z,21.88
2018-07-22T01:51:54.760Z,21.92
2018-07-22T01:52:20.910Z,21.89
2018-07-22T01:52:47.041Z,21.91
2018-07-22T01:53:13.230Z,21.88
2018-07-22T01:53:39.381Z,21.82
2018-07-22T01:54:05.531Z,21.88
2018-07-22T01:54:31.670Z,21.82
2018-07-22T01:54:57.814Z,21.76
2018-07-22T01:55:23.970Z,21.79
2018-07-22T01:55:50.104Z,21.77
2018-07-22T01:56:16.250Z,21.82
2018-07-22T01:56:42.388Z,21.83
2018-07-22T01:57:08.560Z,21.79
2018-07-22T01:57:34.736Z,21.82
2018-07-22T01:58:00.904Z,21.8
2018-07-22T01:58:27.061Z,21.8
2018-07-22T01:58:53.218Z,21.77
2018-07-22T01:59:19.352Z,21.72
2018-07-22T01:59:45.542Z,21.72
2018-07-22T02:00:11.715Z,21.73
2018-07-22T02:00:37.835Z,21.67
2018-07-22T02:01:04.001Z,21.8
2018-07-22T02:01:30.166Z,21.79
2018-07-22T02:01:56.307Z,21.67
2018-07-22T02:02:22.457Z,21.7
2018-07-22T02:02:48.612Z,21.72
2018-07-22T02:03:14.744Z,21.67
2018-07-22T02:03:40.900Z,21.77
2018-07-22T02:04:07.102Z,21.69
2018-07-22T02:04:33.205Z,21.67
2018-07-22T02:04:59.350Z,21.67
2018-07-22T02:05:25.482Z,21.69
2018-07-22T02:05:51.624Z,21.69
2018-07-22T02:06:17.793Z,21.77
2018-07-22T02:06:43.937Z,21.7
2018-07-22T02:07:10.120Z,21.75
2018-07-22T02:07:36.283Z,21.64
2018-07-22T02:08:02.410Z,21.73
2018-07-22T02:08:28.552Z,21.69
2018-07-22T02:08:54.686Z,21.7
2018-07-22T02:09:20.837Z,21.66
2018-07-22T02:09:46.974Z,21.69
2018-07-22T02:10:13.144Z,21.73
2018-07-22T02:10:39.277Z,21.73
2018-07-22T02:11:05.439Z,21.69
2018-07-22T02:11:31.586Z,21.72
2018-07-22T02:11:57.730Z,21.73
2018-07-22T02:12:23.873Z,21.7
2018-07-22T02:12:50.013Z,21.61
2018-07-22T02:13:16.155Z,21.6
2018-07-22T02:13:42.310Z,21.61
2018-07-22T02:14:08.447Z,21.73
2018-07-22T02:14:34.597Z,21.62
2018-07-22T02:15:00.741Z,21.57
2018-07-22T02:15:26.886Z,21.6
2018-07-22T02:15:53.044Z,21.67
2018-07-22T02:16:19.184Z,21.57
2018-07-22T02:16:45.325Z,21.7
2018-07-22T02:17:11.479Z,21.7
2018-07-22T02:17:37.616Z,21.6
2018-07-22T02:18:03.761Z,21.69
2018-07-22T02:18:29.903Z,21.58
2018-07-22T02:18:56.046Z,21.6
2018-07-22T02:19:22.201Z,21.62
2018-07-22T02:19:48.352Z,21.64
2018-07-22T02:20:14.483Z,21.6
2018-07-22T02:20:40.634Z,21.66
2018-07-22T02:21:06.818Z,21.69
2018-07-22T02:21:32.987Z,21.62
2018-07-22T02:21:59.137Z,21.7
2018-07-22T02:22:25.306Z,21.62
2018-07-22T02:22:51.436Z,21.75
2018-07-22T02:23:17.584Z,21.58
2018-07-22T02:23:43.721Z,21.6
2018-07-22T02:24:09.906Z,21.64
2018-07-22T02:24:36.038Z,21.62
2018-07-22T02:25:02.202Z,21.62
2018-07-22T02:25:28.341Z,21.55
2018-07-22T02:25:54.489Z,21.55
2018-07-22T02:26:20.625Z,21.6
2018-07-22T02:26:46.799Z,21.61
2018-07-22T02:27:12.942Z,21.58
2018-07-22T02:27:39.081Z,21.57
2018-07-22T02:28:05.222Z,21.61
2018-07-22T02:28:31.361Z,21.55
2018-07-22T02:28:57.534Z,21.57
2018-07-22T02:29:23.692Z,21.61
2018-07-22T02:29:49.834Z,21.51
2018-07-22T02:30:15.994Z,21.58
2018-07-22T02:30:42.185Z,21.55
2018-07-22T02:31:08.391Z,21.57
2018-07-22T02:31:34.542Z,21.58
2018-07-22T02:32:00.740Z,21.55
2018-07-22T02:32:26.882Z,21.5
2018-07-22T02:32:53.030Z,21.57
2018-07-22T02:33:19.198Z,21.54
2018-07-22T02:33:45.372Z,21.57
2018-07-22T02:34:11.520Z,21.54
2018-07-22T02:34:37.705Z,21.58
2018-07-22T02:35:03.891Z,21.55
2018-07-22T02:35:30.063Z,21.5
2018-07-22T02:35:56.235Z,21.48
2018-07-22T02:36:22.386Z,21.5
2018-07-22T02:36:48.533Z,21.51
2018-07-22T02:37:14.672Z,21.51
2018-07-22T02:37:40.855Z,21.48
2018-07-22T02:38:07.085Z,21.37
2018-07-22T02:38:33.247Z,21.48
2018-07-22T02:38:59.406Z,21.43
2018-07-22T02:39:25.614Z,21.48
2018-07-22T02:39:51.772Z,21.48
2018-07-22T02:40:17.899Z,21.48
2018-07-22T02:40:44.058Z,21.45
2018-07-22T02:41:10.227Z,21.48
2018-07-22T02:41:36.404Z,21.45
2018-07-22T02:42:02.537Z,21.39
2018-07-22T02:42:28.736Z,21.45
2018-07-22T02:42:54.901Z,21.42
2018-07-22T02:43:21.054Z,21.39
2018-07-22T02:43:47.214Z,21.45
2018-07-22T02:44:13.374Z,21.39
2018-07-22T02:44:39.517Z,21.39
2018-07-22T02:45:05.695Z,21.45
2018-07-22T02:45:31.828Z,21.39
2018-07-22T02:45:57.966Z,21.33
2018-07-22T02:46:24.119Z,21.36
2018-07-22T02:46:50.276Z,21.39
2018-07-22T02:47:16.440Z,21.37
2018-07-22T02:47:42.592Z,21.42
2018-07-22T02:48:08.750Z,21.35
2018-07-22T02:48:34.905Z,21.37
2018-07-22T02:49:01.092Z,21.36
2018-07-22T02:49:27.224Z,21.37
2018-07-22T02:49:53.384Z,21.37
2018-07-22T02:50:19.523Z,21.39
2018-07-22T02:50:45.698Z,21.33
2018-07-22T02:51:11.848Z,21.36
2018-07-22T02:51:38.092Z,21.39
2018-07-22T02:52:04.188Z,21.35
2018-07-22T02:52:30.362Z,21.3
2018-07-22T02:52:56.550Z,21.36
2018-07-22T02:53:22.716Z,21.45
2018-07-22T02:53:48.895Z,21.43
2018-07-22T02:54:15.013Z,21.4
2018-07-22T02:54:41.167Z,21.39
2018-07-22T02:55:07.311Z,21.4
2018-07-22T02:55:33.497Z,21.37
2018-07-22T02:55:59.666Z,21.33
2018-07-22T02:56:25.857Z,21.35
2018-07-22T02:56:52.001Z,21.37
2018-07-22T02:57:18.169Z,21.36
2018-07-22T02:57:44.326Z,21.36
2018-07-22T02:58:10.488Z,21.32
2018-07-22T02:58:36.651Z,21.32
2018-07-22T02:59:02.815Z,21.35
2018-07-22T02:59:28.976Z,21.32
2018-07-22T02:59:55.140Z,21.32
2018-07-22T03:00:21.300Z,21.37
2018-07-22T03:00:47.452Z,21.37
2018-07-22T03:01:13.616Z,21.36
2018-07-22T03:01:39.823Z,21.35
2018-07-22T03:02:05.989Z,21.32
2018-07-22T03:02:32.167Z,21.35
2018-07-22T03:02:58.336Z,21.32
2018-07-22T03:03:24.644Z,21.3
2018-07-22T03:03:50.798Z,21.33
2018-07-22T03:04:16.969Z,21.27
2018-07-22T03:04:43.132Z,21.32
2018-07-22T03:05:09.341Z,21.3
2018-07-22T03:05:35.517Z,21.3
2018-07-22T03:06:01.657Z,21.29
2018-07-22T03:06:27.849Z,21.21
2018-07-22T03:06:54.074Z,21.27
2018-07-22T03:07:20.233Z,21.25
2018-07-22T03:07:46.417Z,21.22
2018-07-22T03:08:12.549Z,21.24
2018-07-22T03:08:38.691Z,21.22
2018-07-22T03:09:04.845Z,21.21
2018-07-22T03:09:31.048Z,21.22
2018-07-22T03:09:57.225Z,21.24
2018-07-22T03:10:23.408Z,21.25
2018-07-22T03:10:49.589Z,21.22
2018-07-22T03:11:15.765Z,21.22
2018-07-22T03:11:41.909Z,21.2
2018-07-22T03:12:08.048Z,21.15
2018-07-22T03:12:34.208Z,21.21
2018-07-22T03:13:00.377Z,21.22
2018-07-22T03:13:26.559Z,21.24
2018-07-22T03:13:52.755Z,21.18
2018-07-22T03:14:18.897Z,21.22
2018-07-22T03:14:45.039Z,21.2
2018-07-22T03:15:11.206Z,21.22
2018-07-22T03:15:37.349Z,21.12
2018-07-22T03:16:03.541Z,21.14
2018-07-22T03:16:29.714Z,21.07
2018-07-22T03:16:55.857Z,21.12
2018-07-22T03:17:21.994Z,21.09
2018-07-22T03:17:48.177Z,21.11
2018-07-22T03:18:14.332Z,21.12
2018-07-22T03:18:40.511Z,21.15
2018-07-22T03:19:06.708Z,21.09
2018-07-22T03:19:32.869Z,21.12
2018-07-22T03:19:59.047Z,21.09
2018-07-22T03:20:25.227Z,21.05
2018-07-22T03:20:51.362Z,21.07
2018-07-22T03:21:17.506Z,21.02
2018-07-22T03:21:43.645Z,21.12
2018-07-22T03:22:09.823Z,21.03
2018-07-22T03:22:35.962Z,21.07
2018-07-22T03:23:02.107Z,21.09
2018-07-22T03:23:28.292Z,21.02
2018-07-22T03:23:54.431Z,21.03
2018-07-22T03:24:20.570Z,21.12
2018-07-22T03:24:46.727Z,21.11
2018-07-22T03:25:12.939Z,21.11
2018-07-22T03:25:39.109Z,21.05
2018-07-22T03:26:05.287Z,21.17
2018-07-22T03:26:31.428Z,21.06
2018-07-22T03:26:57.600Z,21.14
2018-07-22T03:27:23.749Z,21.11
2018-07-22T03:27:49.953Z,21.09
2018-07-22T03:28:16.156Z,21.09
2018-07-22T03:28:42.348Z,21.03
2018-07-22T03:29:08.482Z,21.06
2018-07-22T03:29:34.624Z,21.06
2018-07-22T03:30:00.788Z,21.11
2018-07-22T03:30:26.971Z,21.02
2018-07-22T03:30:53.173Z,21.14
2018-07-22T03:31:19.345Z,21.03
2018-07-22T03:31:45.493Z,21
2018-07-22T03:32:11.750Z,21.02
2018-07-22T03:32:37.899Z,21.03
2018-07-22T03:33:04.077Z,21.12
2018-07-22T03:33:30.244Z,20.99
2018-07-22T03:33:56.384Z,21.06
2018-07-22T03:34:22.536Z,21.05
2018-07-22T03:34:48.697Z,21.02
2018-07-22T03:35:14.834Z,20.93
2018-07-22T03:35:40.982Z,20.95
2018-07-22T03:36:07.162Z,20.95
2018-07-22T03:36:33.302Z,21
2018-07-22T03:36:59.461Z,21.03
2018-07-22T03:37:25.626Z,20.97
2018-07-22T03:37:51.816Z,20.99
2018-07-22T03:38:17.977Z,20.93
2018-07-22T03:38:44.124Z,20.93
2018-07-22T03:39:10.284Z,20.96
2018-07-22T03:39:36.439Z,20.93
2018-07-22T03:40:02.578Z,21.02
2018-07-22T03:40:28.723Z,21
2018-07-22T03:40:54.866Z,21
2018-07-22T03:41:21.027Z,20.99
2018-07-22T03:41:47.193Z,20.97
2018-07-22T03:42:13.327Z,20.93
2018-07-22T03:42:39.470Z,20.96
2018-07-22T03:43:05.632Z,21
2018-07-22T03:43:31.815Z,21.07
2018-07-22T03:43:57.950Z,21
2018-07-22T03:44:24.145Z,20.96
2018-07-22T03:44:50.280Z,21.03
2018-07-22T03:45:16.430Z,20.99
2018-07-22T03:45:42.600Z,20.97
2018-07-22T03:46:08.738Z,20.97
2018-07-22T03:46:34.910Z,20.96
2018-07-22T03:47:01.053Z,20.92
2018-07-22T03:47:27.240Z,20.96
2018-07-22T03:47:53.370Z,20.95
2018-07-22T03:48:19.507Z,20.95
2018-07-22T03:48:45.647Z,20.96
2018-07-22T03:49:11.796Z,20.97
2018-07-22T03:49:37.959Z,20.96
2018-07-22T03:50:04.114Z,20.97
2018-07-22T03:50:30.271Z,20.96
2018-07-22T03:50:56.406Z,21
2018-07-22T03:51:22.569Z,21.03
2018-07-22T03:51:48.736Z,20.93
2018-07-22T03:52:14.888Z,20.96
2018-07-22T03:52:41.030Z,20.95
2018-07-22T03:53:07.175Z,20.99
2018-07-22T03:53:33.353Z,20.99
2018-07-22T03:53:59.507Z,20.99
2018-07-22T03:54:25.641Z,21
2018-07-22T03:54:51.795Z,20.93
2018-07-22T03:55:17.976Z,20.97
2018-07-22T03:55:44.113Z,20.96
2018-07-22T03:56:10.265Z,20.97
2018-07-22T03:56:36.420Z,20.95
2018-07-22T03:57:02.552Z,20.92
2018-07-22T03:57:28.700Z,20.93
2018-07-22T03:57:54.870Z,20.88
2018-07-22T03:58:21.039Z,20.9
2018-07-22T03:58:47.176Z,20.93
2018-07-22T03:59:13.334Z,20.92
2018-07-22T03:59:39.517Z,20.9
2018-07-22T04:00:05.683Z,20.87
2018-07-22T04:00:31.836Z,20.88
2018-07-22T04:00:57.972Z,20.95
2018-07-22T04:01:24.120Z,20.87
2018-07-22T04:01:50.258Z,20.84
2018-07-22T04:02:16.408Z,20.78
2018-07-22T04:02:42.563Z,20.74
2018-07-22T04:03:08.683Z,20.78
2018-07-22T04:03:34.830Z,20.8
2018-07-22T04:04:00.994Z,20.78
2018-07-22T04:04:27.120Z,20.87
2018-07-22T04:04:53.263Z,20.87
2018-07-22T04:05:19.401Z,20.84
2018-07-22T04:05:45.551Z,20.74
2018-07-22T04:06:11.706Z,20.82
2018-07-22T04:06:37.847Z,20.85
2018-07-22T04:07:04.069Z,20.8
2018-07-22T04:07:30.160Z,20.81
2018-07-22T04:07:56.311Z,20.81
2018-07-22T04:08:22.479Z,20.78
2018-07-22T04:08:48.627Z,20.77
2018-07-22T04:09:14.803Z,20.78
2018-07-22T04:09:40.957Z,20.81
2018-07-22T04:10:07.115Z,20.75
2018-07-22T04:10:33.274Z,20.75
2018-07-22T04:10:59.426Z,20.75
2018-07-22T04:11:25.566Z,20.74
2018-07-22T04:11:51.705Z,20.72
2018-07-22T04:12:17.877Z,20.72
2018-07-22T04:12:44.011Z,20.74
2018-07-22T04:13:10.183Z,20.7
2018-07-22T04:13:36.350Z,20.78
2018-07-22T04:14:02.546Z,20.74
2018-07-22T04:14:28.707Z,20.72
2018-07-22T04:14:54.851Z,20.78
2018-07-22T04:15:20.982Z,20.74
2018-07-22T04:15:47.127Z,20.74
2018-07-22T04:16:13.278Z,20.81
2018-07-22T04:16:39.427Z,20.78
2018-07-22T04:17:05.608Z,20.74
2018-07-22T04:17:31.709Z,20.7
2018-07-22T04:17:57.909Z,20.74
2018-07-22T04:18:24.061Z,20.69
2018-07-22T04:18:50.197Z,20.74
2018-07-22T04:19:16.333Z,20.7
2018-07-22T04:19:42.481Z,20.67
2018-07-22T04:20:08.617Z,20.72
2018-07-22T04:20:34.767Z,20.65
2018-07-22T04:21:00.916Z,20.63
2018-07-22T04:21:27.080Z,20.69
2018-07-22T04:21:53.212Z,20.65
2018-07-22T04:22:19.349Z,20.67
2018-07-22T04:22:45.503Z,20.65
2018-07-22T04:23:11.642Z,20.67
2018-07-22T04:23:37.780Z,20.66
2018-07-22T04:24:03.923Z,20.65
2018-07-22T04:24:30.071Z,20.62
2018-07-22T04:24:56.312Z,20.67
2018-07-22T04:25:22.482Z,20.67
2018-07-22T04:25:48.642Z,20.67
2018-07-22T04:26:14.786Z,20.66
2018-07-22T04:26:40.963Z,20.66
2018-07-22T04:27:07.098Z,20.7
2018-07-22T04:27:33.237Z,20.7
2018-07-22T04:27:59.403Z,20.65
2018-07-22T04:28:25.548Z,20.72
2018-07-22T04:28:51.681Z,20.69
2018-07-22T04:29:17.854Z,20.63
2018-07-22T04:29:43.987Z,20.65
2018-07-22T04:30:10.124Z,20.65
2018-07-22T04:30:36.280Z,20.74
2018-07-22T04:31:02.495Z,20.66
2018-07-22T04:31:28.637Z,20.62
2018-07-22T04:31:54.802Z,20.66
2018-07-22T04:32:20.962Z,20.65
2018-07-22T04:32:47.109Z,20.67
2018-07-22T04:33:13.283Z,20.67
2018-07-22T04:33:39.416Z,20.7
2018-07-22T04:34:05.577Z,20.69
2018-07-22T04:34:31.715Z,20.8
2018-07-22T04:34:57.861Z,20.75
2018-07-22T04:35:24.051Z,20.66
2018-07-22T04:35:50.181Z,20.77
2018-07-22T04:36:16.342Z,20.81
2018-07-22T04:36:42.568Z,20.75
2018-07-22T04:37:08.710Z,20.78
2018-07-22T04:37:34.896Z,20.78
2018-07-22T04:38:01.050Z,20.75
2018-07-22T04:38:27.175Z,20.74
2018-07-22T04:38:53.424Z,20.7
2018-07-22T04:39:19.590Z,20.81
2018-07-22T04:39:45.739Z,20.8
2018-07-22T04:40:11.899Z,20.74
2018-07-22T04:40:38.024Z,20.81
2018-07-22T04:41:04.167Z,20.81
2018-07-22T04:41:30.337Z,20.8
2018-07-22T04:41:56.471Z,20.82
2018-07-22T04:42:22.618Z,20.78
2018-07-22T04:42:48.767Z,20.8
2018-07-22T04:43:14.910Z,20.72
2018-07-22T04:43:41.058Z,20.77
2018-07-22T04:44:07.206Z,20.69
2018-07-22T04:44:33.363Z,20.8
2018-07-22T04:44:59.534Z,20.81
2018-07-22T04:45:25.669Z,20.7
2018-07-22T04:45:51.812Z,20.7
2018-07-22T04:46:17.974Z,20.72
2018-07-22T04:46:44.126Z,20.75
2018-07-22T04:47:10.293Z,20.75
2018-07-22T04:47:36.436Z,20.78
2018-07-22T04:48:02.598Z,20.8
2018-07-22T04:48:28.741Z,20.77
2018-07-22T04:48:54.880Z,20.82
2018-07-22T04:49:21.015Z,20.8
2018-07-22T04:49:47.233Z,20.78
2018-07-22T04:50:13.367Z,20.82
2018-07-22T04:50:39.503Z,20.84
2018-07-22T04:51:05.655Z,20.81
2018-07-22T04:51:31.805Z,20.85
2018-07-22T04:51:57.978Z,20.8
2018-07-22T04:52:24.126Z,20.82
2018-07-22T04:52:50.265Z,20.88
2018-07-22T04:53:16.425Z,20.84
2018-07-22T04:53:42.611Z,20.75
2018-07-22T04:54:08.793Z,20.75
2018-07-22T04:54:34.940Z,20.85
2018-07-22T04:55:01.098Z,20.9
2018-07-22T04:55:27.248Z,20.85
2018-07-22T04:55:53.447Z,20.87
2018-07-22T04:56:19.585Z,20.87
2018-07-22T04:56:45.776Z,20.85
2018-07-22T04:57:11.981Z,20.92
2018-07-22T04:57:38.120Z,20.88
2018-07-22T04:58:04.265Z,20.93
2018-07-22T04:58:30.398Z,20.96
2018-07-22T04:58:56.541Z,20.99
2018-07-22T04:59:22.678Z,21.09
2018-07-22T04:59:48.831Z,21.15
2018-07-22T05:00:15.000Z,21.09
2018-07-22T05:00:41.163Z,21.09
2018-07-22T05:01:07.321Z,21.11
2018-07-22T05:01:33.439Z,21.09
2018-07-22T05:01:59.626Z,21.22
2018-07-22T05:02:25.766Z,21.21
2018-07-22T05:02:51.903Z,21.2
2018-07-22T05:03:18.049Z,21.18
2018-07-22T05:03:44.182Z,21.22
2018-07-22T05:04:10.333Z,21.27
2018-07-22T05:04:36.491Z,21.3
2018-07-22T05:05:02.627Z,21.32
2018-07-22T05:05:28.775Z,21.29
2018-07-22T05:05:54.912Z,21.32
2018-07-22T05:06:21.057Z,21.3
2018-07-22T05:06:47.231Z,21.35
2018-07-22T05:07:13.383Z,21.29
2018-07-22T05:07:39.519Z,21.29
2018-07-22T05:08:05.686Z,21.32
2018-07-22T05:08:31.868Z,21.27
2018-07-22T05:08:58.043Z,21.2
2018-07-22T05:09:24.212Z,21.27
2018-07-22T05:09:50.354Z,21.29
2018-07-22T05:10:16.524Z,21.18
2018-07-22T05:10:42.685Z,21.29
2018-07-22T05:11:08.815Z,21.15
2018-07-22T05:11:34.968Z,21.18
2018-07-22T05:12:01.109Z,21.24
2018-07-22T05:12:27.260Z,21.2
2018-07-22T05:12:53.444Z,21.25
2018-07-22T05:13:19.606Z,21.12
2018-07-22T05:13:45.769Z,21.17
2018-07-22T05:14:11.911Z,21.06
2018-07-22T05:14:38.049Z,21.14
2018-07-22T05:15:04.198Z,21.12
2018-07-22T05:15:30.342Z,21.18
2018-07-22T05:15:56.472Z,21.17
2018-07-22T05:16:22.638Z,21.07
2018-07-22T05:16:48.788Z,21.11
2018-07-22T05:17:14.931Z,21.07
2018-07-22T05:17:41.113Z,21.22
2018-07-22T05:18:07.271Z,21.2
2018-07-22T05:18:33.416Z,21.07
2018-07-22T05:18:59.572Z,21.09
2018-07-22T05:19:25.710Z,21.07
2018-07-22T05:19:51.836Z,21.07
2018-07-22T05:20:18.000Z,21.11
2018-07-22T05:20:44.135Z,21.17
2018-07-22T05:21:10.281Z,21.2
2018-07-22T05:21:36.418Z,21.21
2018-07-22T05:22:02.551Z,21.33
2018-07-22T05:22:28.719Z,21.27
2018-07-22T05:22:54.897Z,21.29
2018-07-22T05:23:21.037Z,21.36
2018-07-22T05:23:47.189Z,21.39
2018-07-22T05:24:13.319Z,21.37
2018-07-22T05:24:39.493Z,21.37
2018-07-22T05:25:05.696Z,21.37
2018-07-22T05:25:31.840Z,21.39
2018-07-22T05:25:57.983Z,21.46
2018-07-22T05:26:24.170Z,21.48
2018-07-22T05:26:50.312Z,21.5
2018-07-22T05:27:16.479Z,21.5
2018-07-22T05:27:42.629Z,21.55
2018-07-22T05:28:08.753Z,21.55
2018-07-22T05:28:34.910Z,21.57
2018-07-22T05:29:01.060Z,21.58
2018-07-22T05:29:27.196Z,21.57
2018-07-22T05:29:53.364Z,21.51
2018-07-22T05:30:19.542Z,21.57
2018-07-22T05:30:45.672Z,21.58
2018-07-22T05:31:11.823Z,21.54
2018-07-22T05:31:37.966Z,21.52
2018-07-22T05:32:04.103Z,21.58
2018-07-22T05:32:30.254Z,21.62
2018-07-22T05:32:56.397Z,21.57
2018-07-22T05:33:22.561Z,21.62
2018-07-22T05:33:48.698Z,21.61
2018-07-22T05:34:14.844Z,21.66
2018-07-22T05:34:41.023Z,21.58
2018-07-22T05:35:07.177Z,21.76
2018-07-22T05:35:33.303Z,21.69
2018-07-22T05:35:59.468Z,21.64
2018-07-22T05:36:25.633Z,21.67
2018-07-22T05:36:51.729Z,21.73
2018-07-22T05:37:17.900Z,21.79
2018-07-22T05:37:44.061Z,21.77
2018-07-22T05:38:10.211Z,21.8
2018-07-22T05:38:36.386Z,21.82